sensor_id;sensor_type;location;lat;lon;timestamp;pressure;altitude;pressure_sealevel;temperature;humidity
54459;BME280;40368;49.350;8.152;2023-12-28T00:00:44;1001.8;;;11.49;50.05
54459;BME280;40368;49.350;8.152;2023-12-28T00:01:44;1001.8;;;11.47;50.65
54459;BME280;40368;49.350;8.152;2023-12-28T00:02:44;1001.9;;;11.47;50.42
54459;BME280;40368;49.350;8.152;2023-12-28T00:03:44;1001.9;;;11.49;50.82
54459;BME280;40368;49.350;8.152;2023-12-28T00:04:44;1001.9;;;11.5;50.57
54459;BME280;40368;49.350;8.152;2023-12-28T00:05:44;1001.9;;;11.51;50.47
54459;BME280;40368;49.350;8.152;2023-12-28T00:06:44;1001.9;;;11.52;51.29
54459;BME280;40368;49.350;8.152;2023-12-28T00:07:44;1001.9;;;11.57;50.73
54459;BME280;40368;49.350;8.152;2023-12-28T00:08:44;1001.9;;;11.59;50.55
54459;BME280;40368;49.350;8.152;2023-12-28T00:09:44;1001.9;;;11.64;50.73
54459;BME280;40368;49.350;8.152;2023-12-28T00:10:44;1001.8;;;11.7;50.62
54459;BME280;40368;49.350;8.152;2023-12-28T00:11:44;1001.8;;;11.75;50.91
54459;BME280;40368;49.350;8.152;2023-12-28T00:12:44;1001.8;;;11.8;50.67
54459;BME280;40368;49.350;8.152;2023-12-28T00:13:44;1001.8;;;11.84;50.69
54459;BME280;40368;49.350;8.152;2023-12-28T00:14:44;1001.8;;;11.88;50.39
54459;BME280;40368;49.350;8.152;2023-12-28T00:15:44;1001.9;;;11.92;50.23
54459;BME280;40368;49.350;8.152;2023-12-28T00:16:44;1001.9;;;11.93;49.36
54459;BME280;40368;49.350;8.152;2023-12-28T00:17:44;1001.8;;;11.92;49.57
54459;BME280;40368;49.350;8.152;2023-12-28T00:18:44;1001.9;;;11.92;50.17
54459;BME280;40368;49.350;8.152;2023-12-28T00:19:44;1001.8;;;11.93;50.38
54459;BME280;40368;49.350;8.152;2023-12-28T00:20:44;1001.9;;;11.94;50.28
54459;BME280;40368;49.350;8.152;2023-12-28T00:21:44;1001.8;;;11.95;50.18
54459;BME280;40368;49.350;8.152;2023-12-28T00:22:44;1001.7;;;11.94;50.3
54459;BME280;40368;49.350;8.152;2023-12-28T00:23:44;1001.8;;;11.91;49.9
54459;BME280;40368;49.350;8.152;2023-12-28T00:24:44;1001.8;;;11.91;50.29
54459;BME280;40368;49.350;8.152;2023-12-28T00:25:44;1001.9;;;11.9;49.85
54459;BME280;40368;49.350;8.152;2023-12-28T00:26:44;1001.9;;;11.87;50.16
54459;BME280;40368;49.350;8.152;2023-12-28T00:27:44;1001.9;;;11.83;48.88
54459;BME280;40368;49.350;8.152;2023-12-28T00:28:44;1002;;;11.77;48.61
54459;BME280;40368;49.350;8.152;2023-12-28T00:29:44;1002;;;11.72;50.22
54459;BME280;40368;49.350;8.152;2023-12-28T00:30:44;1001.9;;;11.7;50.38
54459;BME280;40368;49.350;8.152;2023-12-28T00:31:44;1002;;;11.71;50.54
54459;BME280;40368;49.350;8.152;2023-12-28T00:32:46;1002;;;11.7;50.72
54459;BME280;40368;49.350;8.152;2023-12-28T00:33:44;1002;;;11.7;49.78
54459;BME280;40368;49.350;8.152;2023-12-28T00:34:44;1002;;;11.67;49.64
54459;BME280;40368;49.350;8.152;2023-12-28T00:35:45;1002;;;11.65;49.73
54459;BME280;40368;49.350;8.152;2023-12-28T00:36:44;1002;;;11.66;50.49
54459;BME280;40368;49.350;8.152;2023-12-28T00:37:44;1002;;;11.63;50.49
54459;BME280;40368;49.350;8.152;2023-12-28T00:38:44;1002;;;11.63;50.26
54459;BME280;40368;49.350;8.152;2023-12-28T00:39:44;1001.9;;;11.63;50.52
54459;BME280;40368;49.350;8.152;2023-12-28T00:40:44;1001.9;;;11.64;50.88
54459;BME280;40368;49.350;8.152;2023-12-28T00:41:44;1001.9;;;11.65;51.24
54459;BME280;40368;49.350;8.152;2023-12-28T00:42:44;1001.9;;;11.64;50.95
54459;BME280;40368;49.350;8.152;2023-12-28T00:43:44;1001.9;;;11.63;49.69
54459;BME280;40368;49.350;8.152;2023-12-28T00:44:44;1001.9;;;11.61;50.78
54459;BME280;40368;49.350;8.152;2023-12-28T00:45:44;1002;;;11.6;51.15
54459;BME280;40368;49.350;8.152;2023-12-28T00:46:44;1002;;;11.59;51.29
54459;BME280;40368;49.350;8.152;2023-12-28T00:47:44;1002;;;11.6;50.93
54459;BME280;40368;49.350;8.152;2023-12-28T00:48:44;1002;;;11.62;51.58
54459;BME280;40368;49.350;8.152;2023-12-28T00:49:44;1001.9;;;11.63;51.34
54459;BME280;40368;49.350;8.152;2023-12-28T00:50:44;1002;;;11.66;51.61
54459;BME280;40368;49.350;8.152;2023-12-28T00:51:44;1002.1;;;11.69;51.4
54459;BME280;40368;49.350;8.152;2023-12-28T00:52:44;1002.1;;;11.73;50.58
54459;BME280;40368;49.350;8.152;2023-12-28T00:53:44;1002.1;;;11.7;51.13
54459;BME280;40368;49.350;8.152;2023-12-28T00:54:44;1002.1;;;11.76;50.74
54459;BME280;40368;49.350;8.152;2023-12-28T00:55:44;1002.1;;;11.79;50.01
54459;BME280;40368;49.350;8.152;2023-12-28T00:56:44;1002;;;11.76;48.55
54459;BME280;40368;49.350;8.152;2023-12-28T00:57:44;1002;;;11.76;50.45
54459;BME280;40368;49.350;8.152;2023-12-28T00:58:44;1002.1;;;11.82;51.3
54459;BME280;40368;49.350;8.152;2023-12-28T00:59:44;1002.1;;;11.87;50.83
54459;BME280;40368;49.350;8.152;2023-12-28T01:00:44;1002.1;;;11.9;51.06
54459;BME280;40368;49.350;8.152;2023-12-28T01:01:44;1002.2;;;11.9;50.39
54459;BME280;40368;49.350;8.152;2023-12-28T01:02:44;1002.2;;;11.85;49.92
54459;BME280;40368;49.350;8.152;2023-12-28T01:04:43;1002.2;;;11.84;48.9
54459;BME280;40368;49.350;8.152;2023-12-28T01:05:44;1002.2;;;11.83;50.62
54459;BME280;40368;49.350;8.152;2023-12-28T01:06:44;1002.2;;;11.82;50.49
54459;BME280;40368;49.350;8.152;2023-12-28T01:07:44;1002.2;;;11.82;50.72
54459;BME280;40368;49.350;8.152;2023-12-28T01:08:44;1002.2;;;11.82;50.7
54459;BME280;40368;49.350;8.152;2023-12-28T01:09:44;1002.2;;;11.83;51.15
54459;BME280;40368;49.350;8.152;2023-12-28T01:10:44;1002.2;;;11.84;50.74
54459;BME280;40368;49.350;8.152;2023-12-28T01:11:44;1002.2;;;11.81;51.16
54459;BME280;40368;49.350;8.152;2023-12-28T01:12:44;1002.2;;;11.8;50.8
54459;BME280;40368;49.350;8.152;2023-12-28T01:13:44;1002.2;;;11.77;51.13
54459;BME280;40368;49.350;8.152;2023-12-28T01:14:44;1002.2;;;11.75;50.12
54459;BME280;40368;49.350;8.152;2023-12-28T01:15:44;1002.2;;;11.75;50.93
54459;BME280;40368;49.350;8.152;2023-12-28T01:16:44;1002.2;;;11.74;50.57
54459;BME280;40368;49.350;8.152;2023-12-28T01:17:44;1002.2;;;11.74;50.89
54459;BME280;40368;49.350;8.152;2023-12-28T01:18:44;1002.2;;;11.73;51.06
54459;BME280;40368;49.350;8.152;2023-12-28T01:19:44;1002.2;;;11.72;50.9
54459;BME280;40368;49.350;8.152;2023-12-28T01:20:44;1002.3;;;11.7;50.7
54459;BME280;40368;49.350;8.152;2023-12-28T01:21:44;1002.2;;;11.66;50.55
54459;BME280;40368;49.350;8.152;2023-12-28T01:22:44;1002.1;;;11.64;50.87
54459;BME280;40368;49.350;8.152;2023-12-28T01:23:44;1002.1;;;11.63;50.86
54459;BME280;40368;49.350;8.152;2023-12-28T01:24:45;1002.2;;;11.61;50.27
54459;BME280;40368;49.350;8.152;2023-12-28T01:25:44;1002.1;;;11.56;51.43
54459;BME280;40368;49.350;8.152;2023-12-28T01:26:44;1002.1;;;11.55;51.62
54459;BME280;40368;49.350;8.152;2023-12-28T01:27:44;1002.1;;;11.55;51.04
54459;BME280;40368;49.350;8.152;2023-12-28T01:28:44;1002.2;;;11.57;51.59
54459;BME280;40368;49.350;8.152;2023-12-28T01:29:44;1002.2;;;11.6;51.6
54459;BME280;40368;49.350;8.152;2023-12-28T01:30:44;1002.2;;;11.62;51.38
54459;BME280;40368;49.350;8.152;2023-12-28T01:31:44;1002.2;;;11.66;51.89
54459;BME280;40368;49.350;8.152;2023-12-28T01:33:44;1002.2;;;11.8;51.75
54459;BME280;40368;49.350;8.152;2023-12-28T01:34:44;1002.4;;;11.79;50.72
54459;BME280;40368;49.350;8.152;2023-12-28T01:35:44;1002.4;;;11.82;51.23
54459;BME280;40368;49.350;8.152;2023-12-28T01:36:44;1002.5;;;11.86;50.69
54459;BME280;40368;49.350;8.152;2023-12-28T01:37:45;1002.5;;;11.91;50.03
54459;BME280;40368;49.350;8.152;2023-12-28T01:38:44;1002.5;;;11.93;50.99
54459;BME280;40368;49.350;8.152;2023-12-28T01:39:44;1002.4;;;11.97;50.83
54459;BME280;40368;49.350;8.152;2023-12-28T01:40:44;1002.4;;;11.99;50.28
54459;BME280;40368;49.350;8.152;2023-12-28T01:41:44;1002.4;;;12;50.35
54459;BME280;40368;49.350;8.152;2023-12-28T01:42:44;1002.4;;;11.97;50.3
54459;BME280;40368;49.350;8.152;2023-12-28T01:43:44;1002.4;;;11.95;50.66
54459;BME280;40368;49.350;8.152;2023-12-28T01:44:44;1002.4;;;11.93;50.91
54459;BME280;40368;49.350;8.152;2023-12-28T01:45:44;1002.4;;;11.9;50.81
54459;BME280;40368;49.350;8.152;2023-12-28T01:46:44;1002.3;;;11.9;50.18
54459;BME280;40368;49.350;8.152;2023-12-28T01:47:44;1002.4;;;11.88;49.89
54459;BME280;40368;49.350;8.152;2023-12-28T01:48:44;1002.4;;;11.86;50.14
54459;BME280;40368;49.350;8.152;2023-12-28T01:49:44;1002.4;;;11.83;50.69
54459;BME280;40368;49.350;8.152;2023-12-28T01:50:44;1002.4;;;11.82;50.32
54459;BME280;40368;49.350;8.152;2023-12-28T01:51:44;1002.4;;;11.8;50.16
54459;BME280;40368;49.350;8.152;2023-12-28T01:52:44;1002.5;;;11.78;49.97
54459;BME280;40368;49.350;8.152;2023-12-28T01:53:44;1002.4;;;11.76;50.41
54459;BME280;40368;49.350;8.152;2023-12-28T01:54:44;1002.4;;;11.75;50.54
54459;BME280;40368;49.350;8.152;2023-12-28T01:55:44;1002.4;;;11.74;50.76
54459;BME280;40368;49.350;8.152;2023-12-28T01:56:44;1002.5;;;11.72;50.2
54459;BME280;40368;49.350;8.152;2023-12-28T01:57:44;1002.5;;;11.66;49.49
54459;BME280;40368;49.350;8.152;2023-12-28T01:58:44;1002.5;;;11.65;51.02
54459;BME280;40368;49.350;8.152;2023-12-28T01:59:44;1002.5;;;11.64;50.33
54459;BME280;40368;49.350;8.152;2023-12-28T02:00:44;1002.6;;;11.63;50.39
54459;BME280;40368;49.350;8.152;2023-12-28T02:01:44;1002.6;;;11.62;50.49
54459;BME280;40368;49.350;8.152;2023-12-28T02:02:44;1002.5;;;11.59;50.67
54459;BME280;40368;49.350;8.152;2023-12-28T02:03:44;1002.6;;;11.57;51.27
54459;BME280;40368;49.350;8.152;2023-12-28T02:04:44;1002.6;;;11.57;51.5
54459;BME280;40368;49.350;8.152;2023-12-28T02:05:44;1002.7;;;11.57;51.49
54459;BME280;40368;49.350;8.152;2023-12-28T02:06:44;1002.6;;;11.54;50.86
54459;BME280;40368;49.350;8.152;2023-12-28T02:07:44;1002.5;;;11.54;51.2
54459;BME280;40368;49.350;8.152;2023-12-28T02:08:44;1002.5;;;11.54;50.99
54459;BME280;40368;49.350;8.152;2023-12-28T02:09:44;1002.5;;;11.54;49.72
54459;BME280;40368;49.350;8.152;2023-12-28T02:10:44;1002.6;;;11.52;50.8
54459;BME280;40368;49.350;8.152;2023-12-28T02:11:45;1002.6;;;11.53;51.7
54459;BME280;40368;49.350;8.152;2023-12-28T02:12:44;1002.6;;;11.57;51.36
54459;BME280;40368;49.350;8.152;2023-12-28T02:13:44;1002.6;;;11.6;50.38
54459;BME280;40368;49.350;8.152;2023-12-28T02:14:44;1002.6;;;11.68;51.14
54459;BME280;40368;49.350;8.152;2023-12-28T02:15:44;1002.5;;;11.72;50.99
54459;BME280;40368;49.350;8.152;2023-12-28T02:16:44;1002.6;;;11.77;51.05
54459;BME280;40368;49.350;8.152;2023-12-28T02:17:46;1002.7;;;11.83;50.87
54459;BME280;40368;49.350;8.152;2023-12-28T02:18:44;1002.7;;;11.9;51.1
54459;BME280;40368;49.350;8.152;2023-12-28T02:19:47;1002.7;;;11.96;50.33
54459;BME280;40368;49.350;8.152;2023-12-28T02:20:44;1002.8;;;12.01;50.24
54459;BME280;40368;49.350;8.152;2023-12-28T02:21:44;1002.8;;;12;50.17
54459;BME280;40368;49.350;8.152;2023-12-28T02:22:44;1002.8;;;12.01;49.81
54459;BME280;40368;49.350;8.152;2023-12-28T02:23:46;1002.7;;;12;50.57
54459;BME280;40368;49.350;8.152;2023-12-28T02:24:55;1002.6;;;12.01;50.12
54459;BME280;40368;49.350;8.152;2023-12-28T02:25:44;1002.7;;;11.96;48.75
54459;BME280;40368;49.350;8.152;2023-12-28T02:26:44;1002.7;;;11.93;50.62
54459;BME280;40368;49.350;8.152;2023-12-28T02:27:44;1002.7;;;11.94;50.06
54459;BME280;40368;49.350;8.152;2023-12-28T02:28:44;1002.7;;;11.94;50.2
54459;BME280;40368;49.350;8.152;2023-12-28T02:29:44;1002.8;;;11.95;50.46
54459;BME280;40368;49.350;8.152;2023-12-28T02:30:44;1002.8;;;11.94;50.3
54459;BME280;40368;49.350;8.152;2023-12-28T02:31:45;1002.8;;;11.94;50.18
54459;BME280;40368;49.350;8.152;2023-12-28T02:32:47;1002.7;;;11.94;50.43
54459;BME280;40368;49.350;8.152;2023-12-28T02:33:47;1002.8;;;11.94;50.29
54459;BME280;40368;49.350;8.152;2023-12-28T02:34:44;1002.7;;;11.93;50.14
54459;BME280;40368;49.350;8.152;2023-12-28T02:35:44;1002.8;;;11.94;50.61
54459;BME280;40368;49.350;8.152;2023-12-28T02:36:44;1002.8;;;11.93;49.9
54459;BME280;40368;49.350;8.152;2023-12-28T02:37:44;1002.8;;;11.89;50.05
54459;BME280;40368;49.350;8.152;2023-12-28T02:38:44;1002.8;;;11.85;50.31
54459;BME280;40368;49.350;8.152;2023-12-28T02:39:44;1002.8;;;11.84;50.61
54459;BME280;40368;49.350;8.152;2023-12-28T02:40:44;1002.8;;;11.84;50.33
54459;BME280;40368;49.350;8.152;2023-12-28T02:41:44;1002.8;;;11.83;49.11
54459;BME280;40368;49.350;8.152;2023-12-28T02:43:44;1002.8;;;11.8;50.71
54459;BME280;40368;49.350;8.152;2023-12-28T02:44:44;1002.9;;;11.79;50.15
54459;BME280;40368;49.350;8.152;2023-12-28T02:45:44;1002.9;;;11.76;50.75
54459;BME280;40368;49.350;8.152;2023-12-28T02:46:44;1002.9;;;11.73;50.08
54459;BME280;40368;49.350;8.152;2023-12-28T02:47:44;1002.9;;;11.71;49.75
54459;BME280;40368;49.350;8.152;2023-12-28T02:48:44;1002.9;;;11.68;50.77
54459;BME280;40368;49.350;8.152;2023-12-28T02:49:44;1002.9;;;11.68;51.02
54459;BME280;40368;49.350;8.152;2023-12-28T02:50:44;1002.8;;;11.69;49.92
54459;BME280;40368;49.350;8.152;2023-12-28T02:51:44;1002.8;;;11.7;50.41
54459;BME280;40368;49.350;8.152;2023-12-28T02:52:44;1002.8;;;11.72;51.21
54459;BME280;40368;49.350;8.152;2023-12-28T02:53:44;1002.8;;;11.72;50.6
54459;BME280;40368;49.350;8.152;2023-12-28T02:54:44;1002.8;;;11.73;51.53
54459;BME280;40368;49.350;8.152;2023-12-28T02:55:44;1002.9;;;11.72;51.62
54459;BME280;40368;49.350;8.152;2023-12-28T02:56:44;1002.9;;;11.71;52.28
54459;BME280;40368;49.350;8.152;2023-12-28T02:57:44;1002.8;;;11.72;52.99
54459;BME280;40368;49.350;8.152;2023-12-28T02:58:44;1002.8;;;11.77;53.26
54459;BME280;40368;49.350;8.152;2023-12-28T02:59:44;1002.8;;;11.84;53.48
54459;BME280;40368;49.350;8.152;2023-12-28T03:00:44;1002.8;;;11.91;53.25
54459;BME280;40368;49.350;8.152;2023-12-28T03:01:44;1002.8;;;11.95;53.95
54459;BME280;40368;49.350;8.152;2023-12-28T03:02:44;1002.8;;;11.95;53.64
54459;BME280;40368;49.350;8.152;2023-12-28T03:03:44;1002.7;;;12;53.28
54459;BME280;40368;49.350;8.152;2023-12-28T03:04:44;1002.8;;;12.04;53.55
54459;BME280;40368;49.350;8.152;2023-12-28T03:05:44;1002.8;;;12.06;53.95
54459;BME280;40368;49.350;8.152;2023-12-28T03:06:44;1002.8;;;12.09;53.35
54459;BME280;40368;49.350;8.152;2023-12-28T03:07:44;1002.8;;;12.08;54.08
54459;BME280;40368;49.350;8.152;2023-12-28T03:08:44;1002.7;;;12.05;54.49
54459;BME280;40368;49.350;8.152;2023-12-28T03:09:44;1002.8;;;12.03;55.02
54459;BME280;40368;49.350;8.152;2023-12-28T03:10:44;1002.8;;;12;55.48
54459;BME280;40368;49.350;8.152;2023-12-28T03:11:44;1002.8;;;11.97;56.67
54459;BME280;40368;49.350;8.152;2023-12-28T03:12:44;1002.7;;;11.93;56.69
54459;BME280;40368;49.350;8.152;2023-12-28T03:13:44;1002.8;;;11.93;55.58
54459;BME280;40368;49.350;8.152;2023-12-28T03:14:44;1002.7;;;11.92;55.58
54459;BME280;40368;49.350;8.152;2023-12-28T03:15:44;1002.8;;;11.91;56.99
54459;BME280;40368;49.350;8.152;2023-12-28T03:16:44;1002.7;;;11.89;56.62
54459;BME280;40368;49.350;8.152;2023-12-28T03:17:44;1002.7;;;11.89;56.52
54459;BME280;40368;49.350;8.152;2023-12-28T03:18:44;1002.7;;;11.89;56.27
54459;BME280;40368;49.350;8.152;2023-12-28T03:19:44;1002.7;;;11.9;57.02
54459;BME280;40368;49.350;8.152;2023-12-28T03:20:44;1002.7;;;11.86;57.63
54459;BME280;40368;49.350;8.152;2023-12-28T03:21:44;1002.7;;;11.84;56.97
54459;BME280;40368;49.350;8.152;2023-12-28T03:22:43;1002.7;;;11.82;58.63
54459;BME280;40368;49.350;8.152;2023-12-28T03:23:44;1002.7;;;11.83;58.1
54459;BME280;40368;49.350;8.152;2023-12-28T03:24:44;1002.7;;;11.82;58.33
54459;BME280;40368;49.350;8.152;2023-12-28T03:25:44;1002.7;;;11.8;59.17
54459;BME280;40368;49.350;8.152;2023-12-28T03:26:44;1002.7;;;11.77;59.05
54459;BME280;40368;49.350;8.152;2023-12-28T03:27:44;1002.7;;;11.76;59.05
54459;BME280;40368;49.350;8.152;2023-12-28T03:28:44;1002.6;;;11.75;59.2
54459;BME280;40368;49.350;8.152;2023-12-28T03:29:44;1002.7;;;11.73;59.55
54459;BME280;40368;49.350;8.152;2023-12-28T03:30:44;1002.7;;;11.72;58.5
54459;BME280;40368;49.350;8.152;2023-12-28T03:31:44;1002.7;;;11.71;60
54459;BME280;40368;49.350;8.152;2023-12-28T03:32:44;1002.7;;;11.7;59.12
54459;BME280;40368;49.350;8.152;2023-12-28T03:33:44;1002.7;;;11.7;60.01
54459;BME280;40368;49.350;8.152;2023-12-28T03:34:44;1002.8;;;11.73;59.6
54459;BME280;40368;49.350;8.152;2023-12-28T03:35:44;1002.7;;;11.72;60.43
54459;BME280;40368;49.350;8.152;2023-12-28T03:36:44;1002.7;;;11.75;60.44
54459;BME280;40368;49.350;8.152;2023-12-28T03:37:44;1002.8;;;11.75;59.94
54459;BME280;40368;49.350;8.152;2023-12-28T03:38:44;1002.7;;;11.78;59.79
54459;BME280;40368;49.350;8.152;2023-12-28T03:39:44;1002.7;;;11.81;60.16
54459;BME280;40368;49.350;8.152;2023-12-28T03:40:44;1002.7;;;11.86;59.84
54459;BME280;40368;49.350;8.152;2023-12-28T03:41:44;1002.6;;;11.9;59.97
54459;BME280;40368;49.350;8.152;2023-12-28T03:42:44;1002.6;;;11.92;60.72
54459;BME280;40368;49.350;8.152;2023-12-28T03:43:44;1002.5;;;11.94;60.53
54459;BME280;40368;49.350;8.152;2023-12-28T03:44:44;1002.5;;;11.95;60.16
54459;BME280;40368;49.350;8.152;2023-12-28T03:45:44;1002.6;;;11.97;60.47
54459;BME280;40368;49.350;8.152;2023-12-28T03:46:44;1002.5;;;12;59.96
54459;BME280;40368;49.350;8.152;2023-12-28T03:47:44;1002.6;;;12.02;60.26
54459;BME280;40368;49.350;8.152;2023-12-28T03:48:44;1002.5;;;12.02;60.52
54459;BME280;40368;49.350;8.152;2023-12-28T03:49:44;1002.5;;;12.03;60.17
54459;BME280;40368;49.350;8.152;2023-12-28T03:50:44;1002.5;;;12.04;60.22
54459;BME280;40368;49.350;8.152;2023-12-28T03:51:44;1002.7;;;12.04;60.44
54459;BME280;40368;49.350;8.152;2023-12-28T03:52:44;1002.6;;;12.03;59.73
54459;BME280;40368;49.350;8.152;2023-12-28T03:53:44;1002.5;;;12.05;58.77
54459;BME280;40368;49.350;8.152;2023-12-28T03:54:44;1002.5;;;12.08;60.37
54459;BME280;40368;49.350;8.152;2023-12-28T03:55:44;1002.5;;;12.06;60.07
54459;BME280;40368;49.350;8.152;2023-12-28T03:56:44;1002.5;;;12.05;60.86
54459;BME280;40368;49.350;8.152;2023-12-28T03:57:44;1002.4;;;12.04;60.66
54459;BME280;40368;49.350;8.152;2023-12-28T03:58:44;1002.5;;;12.03;60.34
54459;BME280;40368;49.350;8.152;2023-12-28T03:59:44;1002.4;;;12.03;59.55
54459;BME280;40368;49.350;8.152;2023-12-28T04:00:44;1002.4;;;12.02;60.46
54459;BME280;40368;49.350;8.152;2023-12-28T04:01:44;1002.4;;;12.02;60.41
54459;BME280;40368;49.350;8.152;2023-12-28T04:02:44;1002.5;;;11.99;60.89
54459;BME280;40368;49.350;8.152;2023-12-28T04:03:44;1002.6;;;11.98;61.19
54459;BME280;40368;49.350;8.152;2023-12-28T04:04:44;1002.5;;;11.97;61.15
54459;BME280;40368;49.350;8.152;2023-12-28T04:05:44;1002.5;;;11.98;61.16
54459;BME280;40368;49.350;8.152;2023-12-28T04:06:44;1002.5;;;11.96;61.07
54459;BME280;40368;49.350;8.152;2023-12-28T04:07:44;1002.5;;;11.98;60.41
54459;BME280;40368;49.350;8.152;2023-12-28T04:08:44;1002.5;;;11.97;61.81
54459;BME280;40368;49.350;8.152;2023-12-28T04:09:44;1002.4;;;11.96;61.79
54459;BME280;40368;49.350;8.152;2023-12-28T04:10:44;1002.5;;;11.95;61.36
54459;BME280;40368;49.350;8.152;2023-12-28T04:11:44;1002.6;;;11.95;60.88
54459;BME280;40368;49.350;8.152;2023-12-28T04:12:44;1002.7;;;11.95;60.75
54459;BME280;40368;49.350;8.152;2023-12-28T04:13:44;1002.7;;;11.94;61.67
54459;BME280;40368;49.350;8.152;2023-12-28T04:14:44;1002.7;;;11.93;62.34
54459;BME280;40368;49.350;8.152;2023-12-28T04:15:44;1002.8;;;11.9;62.59
54459;BME280;40368;49.350;8.152;2023-12-28T04:16:44;1002.8;;;11.88;62.62
54459;BME280;40368;49.350;8.152;2023-12-28T04:17:44;1002.8;;;11.87;62.62
54459;BME280;40368;49.350;8.152;2023-12-28T04:18:44;1002.9;;;11.86;61.1
54459;BME280;40368;49.350;8.152;2023-12-28T04:19:44;1002.9;;;11.86;62.39
54459;BME280;40368;49.350;8.152;2023-12-28T04:20:44;1002.8;;;11.87;61.7
54459;BME280;40368;49.350;8.152;2023-12-28T04:21:44;1003.1;;;11.86;63.19
54459;BME280;40368;49.350;8.152;2023-12-28T04:22:44;1003;;;11.86;62.45
54459;BME280;40368;49.350;8.152;2023-12-28T04:23:44;1002.9;;;11.86;62.8
54459;BME280;40368;49.350;8.152;2023-12-28T04:24:44;1002.9;;;11.86;62.86
54459;BME280;40368;49.350;8.152;2023-12-28T04:25:44;1002.8;;;11.89;63.15
54459;BME280;40368;49.350;8.152;2023-12-28T04:26:44;1002.8;;;11.95;62.41
54459;BME280;40368;49.350;8.152;2023-12-28T04:27:44;1002.8;;;11.98;63.37
54459;BME280;40368;49.350;8.152;2023-12-28T04:28:44;1002.8;;;12.04;61.28
54459;BME280;40368;49.350;8.152;2023-12-28T04:29:44;1002.8;;;12.08;62.63
54459;BME280;40368;49.350;8.152;2023-12-28T04:30:44;1002.8;;;12.11;63.09
54459;BME280;40368;49.350;8.152;2023-12-28T04:31:44;1002.8;;;12.12;62.97
54459;BME280;40368;49.350;8.152;2023-12-28T04:32:44;1002.8;;;12.14;61.5
54459;BME280;40368;49.350;8.152;2023-12-28T04:33:44;1002.8;;;12.15;61.83
54459;BME280;40368;49.350;8.152;2023-12-28T04:34:44;1002.9;;;12.15;62.47
54459;BME280;40368;49.350;8.152;2023-12-28T04:35:44;1003;;;12.14;63.04
54459;BME280;40368;49.350;8.152;2023-12-28T04:36:44;1002.9;;;12.14;62.97
54459;BME280;40368;49.350;8.152;2023-12-28T04:37:45;1003;;;12.14;61.49
54459;BME280;40368;49.350;8.152;2023-12-28T04:38:44;1002.9;;;12.14;63.16
54459;BME280;40368;49.350;8.152;2023-12-28T04:39:44;1002.9;;;12.16;61.19
54459;BME280;40368;49.350;8.152;2023-12-28T04:40:45;1002.9;;;12.15;62.28
54459;BME280;40368;49.350;8.152;2023-12-28T04:41:44;1002.9;;;12.14;63.32
54459;BME280;40368;49.350;8.152;2023-12-28T04:42:44;1002.9;;;12.14;62.49
54459;BME280;40368;49.350;8.152;2023-12-28T04:43:44;1002.9;;;12.14;63.34
54459;BME280;40368;49.350;8.152;2023-12-28T04:44:44;1002.8;;;12.12;62
54459;BME280;40368;49.350;8.152;2023-12-28T04:45:44;1002.8;;;12.14;62.22
54459;BME280;40368;49.350;8.152;2023-12-28T04:46:44;1002.8;;;12.14;61.7
54459;BME280;40368;49.350;8.152;2023-12-28T04:47:44;1002.8;;;12.12;62.65
54459;BME280;40368;49.350;8.152;2023-12-28T04:48:44;1002.8;;;12.12;62.97
54459;BME280;40368;49.350;8.152;2023-12-28T04:49:44;1002.8;;;12.09;63.15
54459;BME280;40368;49.350;8.152;2023-12-28T04:50:44;1002.8;;;12.05;63.54
54459;BME280;40368;49.350;8.152;2023-12-28T04:51:44;1002.8;;;12.07;62.18
54459;BME280;40368;49.350;8.152;2023-12-28T04:52:44;1002.7;;;12.06;62.75
54459;BME280;40368;49.350;8.152;2023-12-28T04:53:44;1002.7;;;12.03;63.61
54459;BME280;40368;49.350;8.152;2023-12-28T04:54:44;1002.7;;;12.02;63.92
54459;BME280;40368;49.350;8.152;2023-12-28T04:55:44;1002.7;;;12.03;62.63
54459;BME280;40368;49.350;8.152;2023-12-28T04:56:44;1002.8;;;12.03;62.99
54459;BME280;40368;49.350;8.152;2023-12-28T04:57:44;1002.8;;;12.03;62.6
54459;BME280;40368;49.350;8.152;2023-12-28T04:58:44;1003;;;12.06;62.95
54459;BME280;40368;49.350;8.152;2023-12-28T04:59:44;1002.9;;;12.05;62.83
54459;BME280;40368;49.350;8.152;2023-12-28T05:00:43;1002.9;;;12.03;62.14
54459;BME280;40368;49.350;8.152;2023-12-28T05:01:44;1003;;;12.02;63.3
54459;BME280;40368;49.350;8.152;2023-12-28T05:02:44;1002.9;;;12.02;62.93
54459;BME280;40368;49.350;8.152;2023-12-28T05:03:44;1002.9;;;12.02;62.79
54459;BME280;40368;49.350;8.152;2023-12-28T05:04:44;1002.9;;;12.03;63.6
54459;BME280;40368;49.350;8.152;2023-12-28T05:05:44;1002.9;;;12.02;63.81
54459;BME280;40368;49.350;8.152;2023-12-28T05:06:44;1002.8;;;12.01;63.12
54459;BME280;40368;49.350;8.152;2023-12-28T05:07:44;1002.9;;;12;63.31
54459;BME280;40368;49.350;8.152;2023-12-28T05:08:44;1002.9;;;11.98;64.4
54459;BME280;40368;49.350;8.152;2023-12-28T05:09:44;1002.9;;;11.99;61.97
54459;BME280;40368;49.350;8.152;2023-12-28T05:10:44;1002.9;;;11.98;64
54459;BME280;40368;49.350;8.152;2023-12-28T05:11:44;1002.9;;;11.95;64.16
54459;BME280;40368;49.350;8.152;2023-12-28T05:12:44;1003;;;11.94;63.57
54459;BME280;40368;49.350;8.152;2023-12-28T05:13:44;1002.9;;;11.93;63.35
54459;BME280;40368;49.350;8.152;2023-12-28T05:14:45;1003;;;11.94;64.03
54459;BME280;40368;49.350;8.152;2023-12-28T05:15:44;1003;;;11.96;62.62
54459;BME280;40368;49.350;8.152;2023-12-28T05:16:45;1002.9;;;11.97;63.76
54459;BME280;40368;49.350;8.152;2023-12-28T05:17:44;1002.9;;;12.01;62.65
54459;BME280;40368;49.350;8.152;2023-12-28T05:18:44;1003;;;12.06;63.53
54459;BME280;40368;49.350;8.152;2023-12-28T05:19:44;1003;;;12.1;62.52
54459;BME280;40368;49.350;8.152;2023-12-28T05:20:44;1003;;;12.15;63.25
54459;BME280;40368;49.350;8.152;2023-12-28T05:21:44;1003;;;12.2;63.03
54459;BME280;40368;49.350;8.152;2023-12-28T05:22:44;1003;;;12.25;62.32
54459;BME280;40368;49.350;8.152;2023-12-28T05:23:44;1003;;;12.25;62.82
54459;BME280;40368;49.350;8.152;2023-12-28T05:24:44;1003;;;12.22;63.22
54459;BME280;40368;49.350;8.152;2023-12-28T05:25:44;1003.2;;;12.21;63.4
54459;BME280;40368;49.350;8.152;2023-12-28T05:26:44;1003.1;;;12.2;63.3
54459;BME280;40368;49.350;8.152;2023-12-28T05:27:44;1003.1;;;12.19;62.13
54459;BME280;40368;49.350;8.152;2023-12-28T05:28:44;1003.1;;;12.18;63.35
54459;BME280;40368;49.350;8.152;2023-12-28T05:29:44;1003.1;;;12.15;63.8
54459;BME280;40368;49.350;8.152;2023-12-28T05:30:44;1003.1;;;12.16;62.79
54459;BME280;40368;49.350;8.152;2023-12-28T05:31:44;1003.1;;;12.17;63.16